sensor_id;sensor_type;location;lat;lon;timestamp;pressure;altitude;pressure_sealevel;temperature;humidity
66176;BME280;52977;44.816;20.538;2022-09-09T00:00:34;99413.53;;;24.35;78.94
66176;BME280;52977;44.816;20.538;2022-09-09T00:03:14;99426.97;;;24.40;78.95
66176;BME280;52977;44.816;20.538;2022-09-09T00:08:18;99428.53;;;24.45;78.33
66176;BME280;52977;44.816;20.538;2022-09-09T00:10:51;99433.38;;;24.41;78.10
66176;BME280;52977;44.816;20.538;2022-09-09T00:13:22;99429.72;;;24.44;77.36
66176;BME280;52977;44.816;20.538;2022-09-09T00:18:29;99430.50;;;24.45;76.26
66176;BME280;52977;44.816;20.538;2022-09-09T00:23:39;99429.88;;;24.33;76.71
66176;BME280;52977;44.816;20.538;2022-09-09T00:29:03;99417.88;;;24.13;76.99
66176;BME280;52977;44.816;20.538;2022-09-09T00:31:30;99407.50;;;24.13;76.78
66176;BME280;52977;44.816;20.538;2022-09-09T00:36:41;99441.53;;;24.28;76.84
66176;BME280;52977;44.816;20.538;2022-09-09T00:39:15;99441.91;;;24.30;75.78
66176;BME280;52977;44.816;20.538;2022-09-09T00:50:00;99434.50;;;24.20;75.51
66176;BME280;52977;44.816;20.538;2022-09-09T00:58:09;99413.50;;;24.12;73.48
66176;BME280;52977;44.816;20.538;2022-09-09T01:00:47;99426.78;;;24.28;73.46
66176;BME280;52977;44.816;20.538;2022-09-09T01:03:37;99433.53;;;24.30;73.14
66176;BME280;52977;44.816;20.538;2022-09-09T01:06:17;99432.03;;;24.26;73.37
66176;BME280;52977;44.816;20.538;2022-09-09T01:14:37;99440.13;;;24.16;74.18
66176;BME280;52977;44.816;20.538;2022-09-09T01:28:08;99466.00;;;23.86;80.37
66176;BME280;52977;44.816;20.538;2022-09-09T01:30:38;99466.84;;;23.83;82.07
66176;BME280;52977;44.816;20.538;2022-09-09T01:33:13;99475.25;;;23.79;82.90
66176;BME280;52977;44.816;20.538;2022-09-09T01:36:08;99474.44;;;23.79;82.45
66176;BME280;52977;44.816;20.538;2022-09-09T01:38:43;99460.66;;;23.68;82.34
66176;BME280;52977;44.816;20.538;2022-09-09T01:41:08;99479.66;;;23.77;82.59
66176;BME280;52977;44.816;20.538;2022-09-09T01:43:45;99480.44;;;23.77;82.77
66176;BME280;52977;44.816;20.538;2022-09-09T01:46:11;99489.59;;;23.78;82.84
66176;BME280;52977;44.816;20.538;2022-09-09T01:48:40;99491.56;;;23.81;82.06
66176;BME280;52977;44.816;20.538;2022-09-09T01:51:09;99469.06;;;23.64;80.19
66176;BME280;52977;44.816;20.538;2022-09-09T01:53:40;99493.13;;;23.82;79.56
66176;BME280;52977;44.816;20.538;2022-09-09T01:59:19;99502.63;;;23.88;77.65
66176;BME280;52977;44.816;20.538;2022-09-09T02:09:43;99506.44;;;24.01;74.43
66176;BME280;52977;44.816;20.538;2022-09-09T02:12:16;99502.91;;;23.97;74.16
66176;BME280;52977;44.816;20.538;2022-09-09T02:15:07;99497.81;;;23.92;74.59
66176;BME280;52977;44.816;20.538;2022-09-09T02:17:46;99498.59;;;23.93;74.18
66176;BME280;52977;44.816;20.538;2022-09-09T02:20:14;99507.00;;;23.89;74.50
66176;BME280;52977;44.816;20.538;2022-09-09T02:22:53;99497.06;;;23.88;74.69
66176;BME280;52977;44.816;20.538;2022-09-09T02:25:22;99493.84;;;23.89;73.79
66176;BME280;52977;44.816;20.538;2022-09-09T02:27:52;99503.75;;;23.94;74.36
66176;BME280;52977;44.816;20.538;2022-09-09T02:30:18;99503.38;;;23.92;74.17
66176;BME280;52977;44.816;20.538;2022-09-09T02:32:56;99493.44;;;23.91;74.43
66176;BME280;52977;44.816;20.538;2022-09-09T02:35:30;99498.66;;;23.89;74.71
66176;BME280;52977;44.816;20.538;2022-09-09T02:38:01;99484.75;;;23.82;74.82
66176;BME280;52977;44.816;20.538;2022-09-09T02:40:30;99491.97;;;23.79;75.97
66176;BME280;52977;44.816;20.538;2022-09-09T02:43:00;99490.75;;;23.80;75.84
66176;BME280;52977;44.816;20.538;2022-09-09T02:45:47;99483.63;;;23.79;76.42
66176;BME280;52977;44.816;20.538;2022-09-09T02:56:09;99478.94;;;23.72;77.33
66176;BME280;52977;44.816;20.538;2022-09-09T02:58:41;99464.66;;;23.67;77.56
66176;BME280;52977;44.816;20.538;2022-09-09T03:01:07;99462.66;;;23.67;77.76
66176;BME280;52977;44.816;20.538;2022-09-09T03:03:34;99470.19;;;23.70;78.29
66176;BME280;52977;44.816;20.538;2022-09-09T03:06:04;99466.63;;;23.70;78.28
66176;BME280;52977;44.816;20.538;2022-09-09T03:08:31;99473.78;;;23.71;78.80
66176;BME280;52977;44.816;20.538;2022-09-09T03:10:59;99474.94;;;23.74;78.52
66176;BME280;52977;44.816;20.538;2022-09-09T03:13:31;99470.56;;;23.72;79.13
66176;BME280;52977;44.816;20.538;2022-09-09T03:15:57;99461.00;;;23.74;79.16
66176;BME280;52977;44.816;20.538;2022-09-09T03:18:23;99465.84;;;23.69;79.31
66176;BME280;52977;44.816;20.538;2022-09-09T03:20:51;99473.34;;;23.72;79.03
66176;BME280;52977;44.816;20.538;2022-09-09T03:23:20;99474.19;;;23.69;79.65
66176;BME280;52977;44.816;20.538;2022-09-09T03:25:51;99484.53;;;23.69;80.18
66176;BME280;52977;44.816;20.538;2022-09-09T03:28:22;99490.56;;;23.64;80.68
66176;BME280;52977;44.816;20.538;2022-09-09T03:30:49;99492.56;;;23.63;81.32
66176;BME280;52977;44.816;20.538;2022-09-09T03:33:15;99495.84;;;23.54;81.76
66176;BME280;52977;44.816;20.538;2022-09-09T03:35:46;99517.31;;;23.58;81.87
66176;BME280;52977;44.816;20.538;2022-09-09T03:38:18;99504.38;;;23.40;82.07
66176;BME280;52977;44.816;20.538;2022-09-09T03:40:54;99530.16;;;23.48;82.29
66176;BME280;52977;44.816;20.538;2022-09-09T03:43:22;99534.88;;;23.51;82.37
66176;BME280;52977;44.816;20.538;2022-09-09T03:45:50;99536.44;;;23.55;81.84
66176;BME280;52977;44.816;20.538;2022-09-09T03:48:16;99539.25;;;23.52;82.39
66176;BME280;52977;44.816;20.538;2022-09-09T03:50:49;99535.75;;;23.44;83.41
66176;BME280;52977;44.816;20.538;2022-09-09T03:53:17;99539.28;;;23.48;83.06
66176;BME280;52977;44.816;20.538;2022-09-09T03:55:46;99534.97;;;23.44;83.02
66176;BME280;52977;44.816;20.538;2022-09-09T03:58:14;99535.38;;;23.42;83.06
66176;BME280;52977;44.816;20.538;2022-09-09T04:00:41;99542.13;;;23.45;83.07
66176;BME280;52977;44.816;20.538;2022-09-09T04:03:11;99565.84;;;23.60;83.00
66176;BME280;52977;44.816;20.538;2022-09-09T04:05:39;99574.63;;;23.55;84.13
66176;BME280;52977;44.816;20.538;2022-09-09T04:08:07;99580.25;;;23.51;84.61
66176;BME280;52977;44.816;20.538;2022-09-09T04:10:34;99581.47;;;23.47;85.87
66176;BME280;52977;44.816;20.538;2022-09-09T04:13:04;99589.97;;;23.36;87.39
66176;BME280;52977;44.816;20.538;2022-09-09T04:15:31;99585.31;;;23.22;90.28
66176;BME280;52977;44.816;20.538;2022-09-09T04:17:58;99589.81;;;23.01;96.12
66176;BME280;52977;44.816;20.538;2022-09-09T04:20:23;99593.50;;;22.87;100.00
66176;BME280;52977;44.816;20.538;2022-09-09T04:22:50;99595.88;;;22.85;100.00
66176;BME280;52977;44.816;20.538;2022-09-09T04:25:15;99605.56;;;22.66;100.00
66176;BME280;52977;44.816;20.538;2022-09-09T04:27:41;99600.38;;;22.72;100.00
66176;BME280;52977;44.816;20.538;2022-09-09T04:30:09;99603.31;;;22.47;100.00
66176;BME280;52977;44.816;20.538;2022-09-09T04:32:36;99593.19;;;21.90;100.00
66176;BME280;52977;44.816;20.538;2022-09-09T04:35:03;99595.16;;;21.93;100.00
66176;BME280;52977;44.816;20.538;2022-09-09T04:37:29;99617.81;;;21.77;100.00
66176;BME280;52977;44.816;20.538;2022-09-09T04:39:54;99620.22;;;21.71;100.00
66176;BME280;52977;44.816;20.538;2022-09-09T04:42:21;99614.22;;;21.83;100.00
66176;BME280;52977;44.816;20.538;2022-09-09T04:44:47;99613.06;;;21.88;100.00
66176;BME280;52977;44.816;20.538;2022-09-09T04:47:12;99614.63;;;21.93;100.00
66176;BME280;52977;44.816;20.538;2022-09-09T04:49:39;99595.59;;;21.84;100.00
66176;BME280;52977;44.816;20.538;2022-09-09T04:52:06;99615.03;;;21.84;100.00
66176;BME280;52977;44.816;20.538;2022-09-09T04:54:34;99467.25;;;20.93;100.00
66176;BME280;52977;44.816;20.538;2022-09-09T04:57:00;99603.50;;;21.89;100.00
66176;BME280;52977;44.816;20.538;2022-09-09T04:59:26;99597.94;;;21.93;100.00
66176;BME280;52977;44.816;20.538;2022-09-09T05:01:54;99592.81;;;21.80;100.00
66176;BME280;52977;44.816;20.538;2022-09-09T05:04:21;99601.56;;;21.82;100.00
66176;BME280;52977;44.816;20.538;2022-09-09T05:06:47;99599.94;;;21.89;100.00
66176;BME280;52977;44.816;20.538;2022-09-09T05:09:13;99596.34;;;21.95;100.00
66176;BME280;52977;44.816;20.538;2022-09-09T05:11:38;99607.44;;;22.02;100.00
66176;BME280;52977;44.816;20.538;2022-09-09T05:14:20;99611.44;;;21.94;100.00
66176;BME280;52977;44.816;20.538;2022-09-09T05:16:45;99603.50;;;21.96;100.00
66176;BME280;52977;44.816;20.538;2022-09-09T05:19:12;99595.19;;;21.85;100.00
66176;BME280;52977;44.816;20.538;2022-09-09T05:21:46;99616.19;;;21.97;100.00
66176;BME280;52977;44.816;20.538;2022-09-09T05:24:14;99626.44;;;22.15;100.00
66176;BME280;52977;44.816;20.538;2022-09-09T05:26:41;99626.50;;;21.93;100.00
66176;BME280;52977;44.816;20.538;2022-09-09T05:29:07;99629.63;;;22.10;100.00
66176;BME280;52977;44.816;20.538;2022-09-09T05:31:33;99632.03;;;22.08;100.00
66176;BME280;52977;44.816;20.538;2022-09-09T05:34:02;99613.00;;;22.02;100.00
66176;BME280;52977;44.816;20.538;2022-09-09T05:36:28;99605.47;;;21.99;100.00
66176;BME280;52977;44.816;20.538;2022-09-09T05:38:55;99625.22;;;22.23;100.00
66176;BME280;52977;44.816;20.538;2022-09-09T05:41:22;99626.41;;;22.26;100.00
66176;BME280;52977;44.816;20.538;2022-09-09T05:43:49;99616.88;;;22.23;100.00
66176;BME280;52977;44.816;20.538;2022-09-09T05:46:18;99610.56;;;22.19;100.00
66176;BME280;52977;44.816;20.538;2022-09-09T05:48:47;99605.78;;;22.19;100.00
66176;BME280;52977;44.816;20.538;2022-09-09T05:51:18;99599.84;;;22.14;100.00
66176;BME280;52977;44.816;20.538;2022-09-09T05:53:45;99583.16;;;22.17;100.00
66176;BME280;52977;44.816;20.538;2022-09-09T05:56:14;99588.66;;;22.32;100.00
66176;BME280;52977;44.816;20.538;2022-09-09T05:58:40;99585.06;;;22.35;100.00
66176;BME280;52977;44.816;20.538;2022-09-09T06:01:12;99586.28;;;22.30;100.00
66176;BME280;52977;44.816;20.538;2022-09-09T06:03:42;99592.28;;;22.22;100.00
66176;BME280;52977;44.816;20.538;2022-09-09T06:06:18;99582.72;;;22.26;100.00
66176;BME280;52977;44.816;20.538;2022-09-09T06:08:47;99572.47;;;22.12;100.00
66176;BME280;52977;44.816;20.538;2022-09-09T06:11:17;99573.59;;;22.18;100.00
66176;BME280;52977;44.816;20.538;2022-09-09T06:13:44;99565.63;;;22.24;100.00
66176;BME280;52977;44.816;20.538;2022-09-09T06:16:11;99571.59;;;22.30;100.00
66176;BME280;52977;44.816;20.538;2022-09-09T06:18:39;99566.03;;;22.30;100.00
66176;BME280;52977;44.816;20.538;2022-09-09T06:21:08;99576.34;;;22.33;100.00
66176;BME280;52977;44.816;20.538;2022-09-09T06:23:34;99581.84;;;22.44;100.00
66176;BME280;52977;44.816;20.538;2022-09-09T06:26:10;99569.47;;;22.52;100.00
66176;BME280;52977;44.816;20.538;2022-09-09T06:28:37;99545.38;;;22.34;100.00
66176;BME280;52977;44.816;20.538;2022-09-09T06:31:08;99575.53;;;22.40;100.00
66176;BME280;52977;44.816;20.538;2022-09-09T06:33:36;99570.75;;;22.36;100.00
66176;BME280;52977;44.816;20.538;2022-09-09T06:36:11;99544.97;;;22.25;100.00
66176;BME280;52977;44.816;20.538;2022-09-09T06:38:38;99565.16;;;22.44;100.00
66176;BME280;52977;44.816;20.538;2022-09-09T06:41:04;99553.25;;;22.43;100.00
66176;BME280;52977;44.816;20.538;2022-09-09T06:43:32;99564.00;;;22.38;100.00
66176;BME280;52977;44.816;20.538;2022-09-09T06:46:02;99565.16;;;22.44;100.00
66176;BME280;52977;44.816;20.538;2022-09-09T06:48:31;99566.81;;;22.34;100.00
66176;BME280;52977;44.816;20.538;2022-09-09T06:53:36;99561.59;;;22.47;100.00
66176;BME280;52977;44.816;20.538;2022-09-09T06:58:44;99577.16;;;22.26;100.00
66176;BME280;52977;44.816;20.538;2022-09-09T07:01:24;99614.81;;;22.49;100.00
66176;BME280;52977;44.816;20.538;2022-09-09T07:03:53;99627.44;;;22.64;100.00
66176;BME280;52977;44.816;20.538;2022-09-09T07:06:26;99643.72;;;22.66;100.00
66176;BME280;52977;44.816;20.538;2022-09-09T07:08:55;99645.66;;;22.76;100.00
66176;BME280;52977;44.816;20.538;2022-09-09T07:11:27;99647.63;;;22.76;100.00
66176;BME280;52977;44.816;20.538;2022-09-09T07:13:53;99629.78;;;22.69;100.00
66176;BME280;52977;44.816;20.538;2022-09-09T07:16:20;99646.06;;;22.75;100.00
66176;BME280;52977;44.816;20.538;2022-09-09T07:18:48;99655.56;;;22.77;100.00
66176;BME280;52977;44.816;20.538;2022-09-09T07:21:16;99652.00;;;22.77;100.00
66176;BME280;52977;44.816;20.538;2022-09-09T07:23:42;99626.59;;;22.67;100.00
66176;BME280;52977;44.816;20.538;2022-09-09T07:26:16;99630.56;;;22.74;100.00
66176;BME280;52977;44.816;20.538;2022-09-09T07:28:45;99642.88;;;22.76;100.00
66176;BME280;52977;44.816;20.538;2022-09-09T07:31:23;99642.88;;;22.76;100.00
66176;BME280;52977;44.816;20.538;2022-09-09T07:33:49;99652.78;;;22.81;100.00
66176;BME280;52977;44.816;20.538;2022-09-09T07:36:20;99652.41;;;22.79;100.00
66176;BME280;52977;44.816;20.538;2022-09-09T07:38:51;99662.34;;;22.76;100.00
66176;BME280;52977;44.816;20.538;2022-09-09T07:41:21;99581.13;;;22.25;100.00
66176;BME280;52977;44.816;20.538;2022-09-09T07:43:50;99651.63;;;22.75;100.00
66176;BME280;52977;44.816;20.538;2022-09-09T07:46:18;99664.72;;;22.78;100.00
66176;BME280;52977;44.816;20.538;2022-09-09T07:48:54;99636.22;;;22.56;100.00
66176;BME280;52977;44.816;20.538;2022-09-09T07:51:31;99666.78;;;22.66;100.00
66176;BME280;52977;44.816;20.538;2022-09-09T07:54:00;99683.06;;;22.68;100.00
66176;BME280;52977;44.816;20.538;2022-09-09T07:56:29;99675.91;;;22.70;100.00
66176;BME280;52977;44.816;20.538;2022-09-09T07:58:56;99674.31;;;22.69;100.00
66176;BME280;52977;44.816;20.538;2022-09-09T08:01:29;99684.59;;;22.73;100.00
66176;BME280;52977;44.816;20.538;2022-09-09T08:04:02;99661.66;;;22.54;100.00
66176;BME280;52977;44.816;20.538;2022-09-09T08:06:36;99674.66;;;22.75;100.00
66176;BME280;52977;44.816;20.538;2022-09-09T08:09:03;99683.38;;;22.77;100.00
66176;BME280;52977;44.816;20.538;2022-09-09T08:11:31;99672.75;;;22.61;100.00
66176;BME280;52977;44.816;20.538;2022-09-09T08:13:58;99691.34;;;22.75;100.00
66176;BME280;52977;44.816;20.538;2022-09-09T08:16:28;99692.91;;;22.80;100.00
66176;BME280;52977;44.816;20.538;2022-09-09T08:18:55;99698.84;;;22.85;100.00
66176;BME280;52977;44.816;20.538;2022-09-09T08:21:26;99686.56;;;22.79;100.00
66176;BME280;52977;44.816;20.538;2022-09-09T08:23:56;99679.09;;;22.62;100.00
66176;BME280;52977;44.816;20.538;2022-09-09T08:26:27;99686.63;;;22.68;100.00
66176;BME280;52977;44.816;20.538;2022-09-09T08:28:56;99683.44;;;22.70;100.00
66176;BME280;52977;44.816;20.538;2022-09-09T08:31:34;99684.97;;;22.82;100.00
66176;BME280;52977;44.816;20.538;2022-09-09T08:34:01;99671.84;;;22.82;100.00
66176;BME280;52977;44.816;20.538;2022-09-09T08:36:32;99682.88;;;22.97;100.00
66176;BME280;52977;44.816;20.538;2022-09-09T08:39:04;99677.28;;;23.04;100.00
66176;BME280;52977;44.816;20.538;2022-09-09T08:50:28;99580.94;;;22.65;100.00
66176;BME280;52977;44.816;20.538;2022-09-09T08:53:04;99663.22;;;23.29;100.00
66176;BME280;52977;44.816;20.538;2022-09-09T08:55:53;99650.41;;;23.35;100.00
66176;BME280;52977;44.816;20.538;2022-09-09T08:58:42;99647.69;;;23.32;100.00
66176;BME280;52977;44.816;20.538;2022-09-09T09:12:46;99652.94;;;23.19;100.00
66176;BME280;52977;44.816;20.538;2022-09-09T09:15:21;99645.44;;;23.09;100.00
66176;BME280;52977;44.816;20.538;2022-09-09T09:17:50;99646.22;;;23.09;100.00
66176;BME280;52977;44.816;20.538;2022-09-09T09:20:20;99653.75;;;23.16;100.00
66176;BME280;52977;44.816;20.538;2022-09-09T09:22:52;99660.84;;;23.24;100.00
66176;BME280;52977;44.816;20.538;2022-09-09T09:25:39;99624.81;;;23.02;100.00
66176;BME280;52977;44.816;20.538;2022-09-09T09:28:24;99662.50;;;23.18;100.00
66176;BME280;52977;44.816;20.538;2022-09-09T09:31:07;99668.00;;;23.25;100.00
66176;BME280;52977;44.816;20.538;2022-09-09T09:33:53;99653.31;;;23.21;100.00
66176;BME280;52977;44.816;20.538;2022-09-09T09:36:34;99652.50;;;23.24;100.00
66176;BME280;52977;44.816;20.538;2022-09-09T09:39:02;99655.63;;;23.33;100.00
66176;BME280;52977;44.816;20.538;2022-09-09T09:41:34;99648.53;;;23.25;100.00
66176;BME280;52977;44.816;20.538;2022-09-09T09:44:03;99658.75;;;23.39;100.00
66176;BME280;52977;44.816;20.538;2022-09-09T09:46:31;99651.09;;;23.47;100.00
66176;BME280;52977;44.816;20.538;2022-09-09T09:49:09;99644.66;;;23.57;100.00
66176;BME280;52977;44.816;20.538;2022-09-09T09:51:36;99658.94;;;23.63;100.00
66176;BME280;52977;44.816;20.538;2022-09-09T09:54:28;99654.16;;;23.63;100.00
66176;BME280;52977;44.816;20.538;2022-09-09T09:57:30;99654.59;;;23.58;100.00
66176;BME280;52977;44.816;20.538;2022-09-09T10:00:25;99651.78;;;23.62;100.00
66176;BME280;52977;44.816;20.538;2022-09-09T10:03:00;99654.94;;;23.64;100.00
66176;BME280;52977;44.816;20.538;2022-09-09T10:05:30;99632.63;;;23.64;100.00
66176;BME280;52977;44.816;20.538;2022-09-09T10:08:15;99643.69;;;23.75;100.00
66176;BME280;52977;44.816;20.538;2022-09-09T10:16:38;99634.50;;;23.78;100.00
66176;BME280;52977;44.816;20.538;2022-09-09T10:19:15;99608.31;;;23.68;100.00
66176;BME280;52977;44.816;20.538;2022-09-09T10:21:59;99629.31;;;23.80;100.00
66176;BME280;52977;44.816;20.538;2022-09-09T10:27:15;99627.19;;;23.95;100.00
66176;BME280;52977;44.816;20.538;2022-09-09T10:33:04;99623.81;;;24.11;100.00
66176;BME280;52977;44.816;20.538;2022-09-09T10:35:51;99624.22;;;24.09;100.00
66176;BME280;52977;44.816;20.538;2022-09-09T10:38:27;99623.47;;;24.05;100.00
66176;BME280;52977;44.816;20.538;2022-09-09T10:46:09;99601.28;;;24.29;100.00
66176;BME280;52977;44.816;20.538;2022-09-09T10:54:42;99593.19;;;24.38;100.00
66176;BME280;52977;44.816;20.538;2022-09-09T10:57:17;99579.56;;;24.44;100.00
66176;BME280;52977;44.816;20.538;2022-09-09T10:59:48;99588.56;;;24.55;100.00
66176;BME280;52977;44.816;20.538;2022-09-09T11:02:30;99576.69;;;24.51;100.00
66176;BME280;52977;44.816;20.538;2022-09-09T11:05:33;99597.59;;;24.66;100.00
66176;BME280;52977;44.816;20.538;2022-09-09T11:08:05;99591.19;;;24.69;100.00
66176;BME280;52977;44.816;20.538;2022-09-09T11:13:03;99593.66;;;24.91;100.00
66176;BME280;52977;44.816;20.538;2022-09-09T11:15:36;99584.03;;;24.92;100.00
66176;BME280;52977;44.816;20.538;2022-09-09T11:18:11;99590.97;;;25.07;100.00
66176;BME280;52977;44.816;20.538;2022-09-09T11:20:39;99579.34;;;25.13;100.00
66176;BME280;52977;44.816;20.538;2022-09-09T11:23:11;99580.44;;;25.19;100.00
66176;BME280;52977;44.816;20.538;2022-09-09T11:25:41;99574.34;;;25.24;100.00
66176;BME280;52977;44.816;20.538;2022-09-09T11:38:52;99561.97;;;25.49;100.00
66176;BME280;52977;44.816;20.538;2022-09-09T11:41:19;99567.00;;;25.57;100.00
66176;BME280;52977;44.816;20.538;2022-09-09T11:43:51;99561.19;;;25.68;99.78
66176;BME280;52977;44.816;20.538;2022-09-09T11:46:20;99569.09;;;25.73;97.03
66176;BME280;52977;44.816;20.538;2022-09-09T11:48:59;99551.75;;;25.82;97.13
66176;BME280;52977;44.816;20.538;2022-09-09T11:51:26;99551.69;;;25.86;94.34
66176;BME280;52977;44.816;20.538;2022-09-09T11:54:01;99538.41;;;25.90;93.76
66176;BME280;52977;44.816;20.538;2022-09-09T11:58:57;99539.19;;;26.10;93.32
66176;BME280;52977;44.816;20.538;2022-09-09T12:01:38;99528.72;;;26.15;80.95
66176;BME280;52977;44.816;20.538;2022-09-09T12:19:41;99520.41;;;26.64;77.02
66176;BME280;52977;44.816;20.538;2022-09-09T12:24:45;99494.34;;;26.67;74.28
66176;BME280;52977;44.816;20.538;2022-09-09T12:27:23;99512.19;;;26.90;75.17
66176;BME280;52977;44.816;20.538;2022-09-09T12:32:25;99494.50;;;26.93;75.23
66176;BME280;52977;44.816;20.538;2022-09-09T12:34:55;99493.66;;;26.80;75.85
66176;BME280;52977;44.816;20.538;2022-09-09T12:37:32;99495.06;;;26.71;76.95
66176;BME280;52977;44.816;20.538;2022-09-09T12:40:23;99489.41;;;26.38;79.08
66176;BME280;52977;44.816;20.538;2022-09-09T12:42:49;99489.38;;;26.05;79.37
66176;BME280;52977;44.816;20.538;2022-09-09T12:45:20;99468.22;;;26.04;80.77
66176;BME280;52977;44.816;20.538;2022-09-09T12:50:27;99483.31;;;26.43;80.03
66176;BME280;52977;44.816;20.538;2022-09-09T12:52:56;99477.09;;;26.36;80.17
66176;BME280;52977;44.816;20.538;2022-09-09T12:55:27;99477.00;;;26.23;80.14
66176;BME280;52977;44.816;20.538;2022-09-09T12:57:53;99471.63;;;26.12;81.22
66176;BME280;52977;44.816;20.538;2022-09-09T13:00:21;99451.28;;;26.12;80.91
66176;BME280;52977;44.816;20.538;2022-09-09T13:02:59;99473.34;;;26.42;78.23
66176;BME280;52977;44.816;20.538;2022-09-09T13:05:27;99466.09;;;26.61;77.70
66176;BME280;52977;44.816;20.538;2022-09-09T13:08:09;99465.75;;;26.76;76.87
66176;BME280;52977;44.816;20.538;2022-09-09T13:10:46;99462.59;;;26.90;75.48
66176;BME280;52977;44.816;20.538;2022-09-09T13:13:17;99461.97;;;26.83;74.39
66176;BME280;52977;44.816;20.538;2022-09-09T13:15:53;99458.47;;;26.78;75.82
66176;BME280;52977;44.816;20.538;2022-09-09T13:18:36;99442.03;;;26.64;77.82
66176;BME280;52977;44.816;20.538;2022-09-09T13:21:03;99453.50;;;26.70;76.21
66176;BME280;52977;44.816;20.538;2022-09-09T13:23:32;99455.16;;;26.51;77.84
66176;BME280;52977;44.816;20.538;2022-09-09T13:26:05;99451.75;;;26.43;77.00
66176;BME280;52977;44.816;20.538;2022-09-09T13:28:33;99442.28;;;26.37;78.04
66176;BME280;52977;44.816;20.538;2022-09-09T13:31:05;99439.94;;;26.35;75.62
66176;BME280;52977;44.816;20.538;2022-09-09T13:33:44;99437.41;;;26.41;76.01
66176;BME280;52977;44.816;20.538;2022-09-09T13:36:11;99443.59;;;26.65;75.20
66176;BME280;52977;44.816;20.538;2022-09-09T13:38:54;99416.31;;;26.69;75.09
66176;BME280;52977;44.816;20.538;2022-09-09T13:41:25;99443.59;;;26.65;75.12
66176;BME280;52977;44.816;20.538;2022-09-09T13:43:54;99435.38;;;26.58;76.06
66176;BME280;52977;44.816;20.538;2022-09-09T13:48:59;99440.97;;;26.58;77.39
66176;BME280;52977;44.816;20.538;2022-09-09T13:51:42;99435.66;;;26.47;76.66
66176;BME280;52977;44.816;20.538;2022-09-09T13:54:10;99433.63;;;26.31;77.02
66176;BME280;52977;44.816;20.538;2022-09-09T13:56:37;99431.00;;;26.24;78.56
66176;BME280;52977;44.816;20.538;2022-09-09T13:59:11;99411.63;;;26.17;79.68
66176;BME280;52977;44.816;20.538;2022-09-09T14:01:37;99430.31;;;26.36;78.71
66176;BME280;52977;44.816;20.538;2022-09-09T14:04:03;99412.66;;;26.39;78.26
66176;BME280;52977;44.816;20.538;2022-09-09T14:06:30;99408.72;;;26.37;78.30
66176;BME280;52977;44.816;20.538;2022-09-09T14:08:58;99416.84;;;26.48;78.40
66176;BME280;52977;44.816;20.538;2022-09-09T14:11:24;99313.44;;;25.78;74.96
66176;BME280;52977;44.816;20.538;2022-09-09T14:13:50;99403.13;;;26.37;74.16
66176;BME280;52977;44.816;20.538;2022-09-09T14:16:16;99401.91;;;26.38;74.54
66176;BME280;52977;44.816;20.538;2022-09-09T14:18:46;99395.16;;;26.35;73.57
66176;BME280;52977;44.816;20.538;2022-09-09T14:21:11;99395.16;;;26.35;74.59
66176;BME280;52977;44.816;20.538;2022-09-09T14:23:37;99407.84;;;26.40;74.94
66176;BME280;52977;44.816;20.538;2022-09-09T14:26:04;99399.00;;;26.41;73.16
66176;BME280;52977;44.816;20.538;2022-09-09T14:28:31;99397.09;;;26.38;72.28
66176;BME280;52977;44.816;20.538;2022-09-09T14:31:03;99394.72;;;26.37;73.13
66176;BME280;52977;44.816;20.538;2022-09-09T14:33:29;99392.03;;;26.33;72.65
66176;BME280;52977;44.816;20.538;2022-09-09T14:35:59;99408.38;;;26.35;73.04
66176;BME280;52977;44.816;20.538;2022-09-09T14:38:28;99392.44;;;26.32;73.43
66176;BME280;52977;44.816;20.538;2022-09-09T14:40:54;99382.69;;;26.23;73.68
66176;BME280;52977;44.816;20.538;2022-09-09T14:43:20;99364.31;;;26.06;73.65
66176;BME280;52977;44.816;20.538;2022-09-09T14:45:46;99384.53;;;26.14;74.07
66176;BME280;52977;44.816;20.538;2022-09-09T14:48:16;99399.47;;;26.23;72.53
66176;BME280;52977;44.816;20.538;2022-09-09T14:50:42;99382.75;;;26.20;73.94
66176;BME280;52977;44.816;20.538;2022-09-09T14:53:08;99394.66;;;26.24;72.69
66176;BME280;52977;44.816;20.538;2022-09-09T14:55:36;99387.84;;;26.25;72.00
66176;BME280;52977;44.816;20.538;2022-09-09T14:58:03;99386.59;;;26.26;72.73
66176;BME280;52977;44.816;20.538;2022-09-09T15:00:29;99385.81;;;26.25;71.84
66176;BME280;52977;44.816;20.538;2022-09-09T15:02:55;99377.44;;;26.25;72.24
66176;BME280;52977;44.816;20.538;2022-09-09T15:05:21;99378.75;;;26.21;70.89
66176;BME280;52977;44.816;20.538;2022-09-09T15:07:47;99382.75;;;26.20;71.30
66176;BME280;52977;44.816;20.538;2022-09-09T15:10:13;99379.97;;;26.20;71.44
66176;BME280;52977;44.816;20.538;2022-09-09T15:12:39;99380.84;;;26.17;71.84
66176;BME280;52977;44.816;20.538;2022-09-09T15:15:08;99369.47;;;26.07;71.04
66176;BME280;52977;44.816;20.538;2022-09-09T15:17:34;99380.47;;;26.15;70.71
66176;BME280;52977;44.816;20.538;2022-09-09T15:20:00;99386.63;;;26.09;71.19
66176;BME280;52977;44.816;20.538;2022-09-09T15:22:26;99381.53;;;26.04;70.93
66176;BME280;52977;44.816;20.538;2022-09-09T15:24:53;99372.41;;;26.00;71.47
66176;BME280;52977;44.816;20.538;2022-09-09T15:27:18;99382.75;;;26.03;72.33
66176;BME280;52977;44.816;20.538;2022-09-09T15:29:44;99381.19;;;26.02;72.50
66176;BME280;52977;44.816;20.538;2022-09-09T15:32:10;99356.31;;;25.88;72.92
66176;BME280;52977;44.816;20.538;2022-09-09T15:34:36;99374.72;;;26.05;72.74
66176;BME280;52977;44.816;20.538;2022-09-09T15:37:01;99388.72;;;26.05;72.49